sensor_id;sensor_type;location;lat;lon;timestamp;temperature;humidity
69189;DHT22;56302;52.322;5.926;2022-10-16T00:01:18;11.60;96.00
69189;DHT22;56302;52.322;5.926;2022-10-16T00:03:44;11.50;96.10
69189;DHT22;56302;52.322;5.926;2022-10-16T00:06:11;11.50;96.20
69189;DHT22;56302;52.322;5.926;2022-10-16T00:08:38;11.40;96.40
69189;DHT22;56302;52.322;5.926;2022-10-16T00:11:12;11.30;96.70
69189;DHT22;56302;52.322;5.926;2022-10-16T00:13:40;11.30;96.60
69189;DHT22;56302;52.322;5.926;2022-10-16T00:16:07;11.30;96.70
69189;DHT22;56302;52.322;5.926;2022-10-16T00:18:33;11.30;96.50
69189;DHT22;56302;52.322;5.926;2022-10-16T00:21:05;11.30;96.50
69189;DHT22;56302;52.322;5.926;2022-10-16T00:23:31;11.30;96.60
69189;DHT22;56302;52.322;5.926;2022-10-16T00:25:59;11.20;96.60
69189;DHT22;56302;52.322;5.926;2022-10-16T00:28:25;11.20;96.80
69189;DHT22;56302;52.322;5.926;2022-10-16T00:30:51;11.20;96.80
69189;DHT22;56302;52.322;5.926;2022-10-16T00:33:16;11.20;96.80
69189;DHT22;56302;52.322;5.926;2022-10-16T00:35:42;11.20;96.70
69189;DHT22;56302;52.322;5.926;2022-10-16T00:38:07;11.20;96.60
69189;DHT22;56302;52.322;5.926;2022-10-16T00:40:33;11.20;96.70
69189;DHT22;56302;52.322;5.926;2022-10-16T00:42:58;11.20;96.60
69189;DHT22;56302;52.322;5.926;2022-10-16T00:45:24;11.30;96.30
69189;DHT22;56302;52.322;5.926;2022-10-16T00:47:51;11.30;96.20
69189;DHT22;56302;52.322;5.926;2022-10-16T00:50:34;11.30;96.10
69189;DHT22;56302;52.322;5.926;2022-10-16T00:53:00;11.40;96.00
69189;DHT22;56302;52.322;5.926;2022-10-16T00:55:27;11.40;95.70
69189;DHT22;56302;52.322;5.926;2022-10-16T00:57:56;11.40;95.70
69189;DHT22;56302;52.322;5.926;2022-10-16T01:00:24;11.40;95.40
69189;DHT22;56302;52.322;5.926;2022-10-16T01:02:59;11.40;95.50
69189;DHT22;56302;52.322;5.926;2022-10-16T01:05:49;11.40;95.50
69189;DHT22;56302;52.322;5.926;2022-10-16T01:08:34;11.30;95.60
69189;DHT22;56302;52.322;5.926;2022-10-16T01:11:27;11.30;95.90
69189;DHT22;56302;52.322;5.926;2022-10-16T01:13:58;11.30;96.00
69189;DHT22;56302;52.322;5.926;2022-10-16T01:16:34;11.40;96.00
69189;DHT22;56302;52.322;5.926;2022-10-16T01:19:12;11.40;95.90
69189;DHT22;56302;52.322;5.926;2022-10-16T01:21:42;11.40;95.70
69189;DHT22;56302;52.322;5.926;2022-10-16T01:24:31;11.50;95.70
69189;DHT22;56302;52.322;5.926;2022-10-16T01:32:19;11.50;95.40
69189;DHT22;56302;52.322;5.926;2022-10-16T01:35:19;11.60;95.60
69189;DHT22;56302;52.322;5.926;2022-10-16T01:40:19;11.60;95.40
69189;DHT22;56302;52.322;5.926;2022-10-16T01:42:54;11.60;95.20
69189;DHT22;56302;52.322;5.926;2022-10-16T01:45:21;11.70;95.00
69189;DHT22;56302;52.322;5.926;2022-10-16T01:47:49;11.70;94.90
69189;DHT22;56302;52.322;5.926;2022-10-16T01:50:18;11.80;94.60
69189;DHT22;56302;52.322;5.926;2022-10-16T01:52:48;11.80;94.60
69189;DHT22;56302;52.322;5.926;2022-10-16T01:55:17;11.80;94.50
69189;DHT22;56302;52.322;5.926;2022-10-16T01:57:46;11.80;94.40
69189;DHT22;56302;52.322;5.926;2022-10-16T02:00:14;11.80;94.50
69189;DHT22;56302;52.322;5.926;2022-10-16T02:02:43;11.80;94.40
69189;DHT22;56302;52.322;5.926;2022-10-16T02:05:18;11.90;94.30
69189;DHT22;56302;52.322;5.926;2022-10-16T02:07:45;11.90;94.30
69189;DHT22;56302;52.322;5.926;2022-10-16T02:10:12;11.90;94.60
69189;DHT22;56302;52.322;5.926;2022-10-16T02:12:40;11.80;95.00
69189;DHT22;56302;52.322;5.926;2022-10-16T02:15:08;11.90;95.00
69189;DHT22;56302;52.322;5.926;2022-10-16T02:17:34;11.90;95.00
69189;DHT22;56302;52.322;5.926;2022-10-16T02:20:00;11.90;95.00
69189;DHT22;56302;52.322;5.926;2022-10-16T02:22:45;11.90;94.80
69189;DHT22;56302;52.322;5.926;2022-10-16T02:25:31;11.90;94.90
69189;DHT22;56302;52.322;5.926;2022-10-16T02:28:08;11.90;94.80
69189;DHT22;56302;52.322;5.926;2022-10-16T02:30:42;11.90;94.90
69189;DHT22;56302;52.322;5.926;2022-10-16T02:33:11;12.00;94.90
69189;DHT22;56302;52.322;5.926;2022-10-16T02:35:40;12.00;94.90
69189;DHT22;56302;52.322;5.926;2022-10-16T02:38:06;11.90;94.90
69189;DHT22;56302;52.322;5.926;2022-10-16T02:40:33;12.00;95.00
69189;DHT22;56302;52.322;5.926;2022-10-16T02:42:58;12.00;94.90
69189;DHT22;56302;52.322;5.926;2022-10-16T02:45:24;12.00;95.00
69189;DHT22;56302;52.322;5.926;2022-10-16T02:47:50;11.90;95.00
69189;DHT22;56302;52.322;5.926;2022-10-16T02:50:16;11.90;95.20
69189;DHT22;56302;52.322;5.926;2022-10-16T02:52:42;11.90;95.60
69189;DHT22;56302;52.322;5.926;2022-10-16T02:55:08;11.90;95.70
69189;DHT22;56302;52.322;5.926;2022-10-16T02:57:34;11.90;95.60
69189;DHT22;56302;52.322;5.926;2022-10-16T03:00:05;11.90;95.50
69189;DHT22;56302;52.322;5.926;2022-10-16T03:02:31;11.90;95.60
69189;DHT22;56302;52.322;5.926;2022-10-16T03:04:56;11.90;95.80
69189;DHT22;56302;52.322;5.926;2022-10-16T03:07:22;11.90;95.70
69189;DHT22;56302;52.322;5.926;2022-10-16T03:09:47;11.90;95.70
69189;DHT22;56302;52.322;5.926;2022-10-16T03:12:13;11.90;95.80
69189;DHT22;56302;52.322;5.926;2022-10-16T03:14:38;11.90;95.70
69189;DHT22;56302;52.322;5.926;2022-10-16T03:17:05;11.90;95.90
69189;DHT22;56302;52.322;5.926;2022-10-16T03:19:30;11.90;95.90
69189;DHT22;56302;52.322;5.926;2022-10-16T03:21:56;11.90;96.00
69189;DHT22;56302;52.322;5.926;2022-10-16T03:24:21;11.90;96.00
69189;DHT22;56302;52.322;5.926;2022-10-16T03:26:47;11.80;96.10
69189;DHT22;56302;52.322;5.926;2022-10-16T03:29:12;11.80;96.10
69189;DHT22;56302;52.322;5.926;2022-10-16T03:31:38;11.80;96.20
69189;DHT22;56302;52.322;5.926;2022-10-16T03:34:03;11.80;96.10
69189;DHT22;56302;52.322;5.926;2022-10-16T03:36:29;11.70;96.30
69189;DHT22;56302;52.322;5.926;2022-10-16T03:38:54;11.70;96.30
69189;DHT22;56302;52.322;5.926;2022-10-16T03:41:20;11.70;96.40
69189;DHT22;56302;52.322;5.926;2022-10-16T03:43:45;11.70;96.70
69189;DHT22;56302;52.322;5.926;2022-10-16T03:46:11;11.70;96.60
69189;DHT22;56302;52.322;5.926;2022-10-16T03:48:36;11.60;96.70
69189;DHT22;56302;52.322;5.926;2022-10-16T03:51:02;11.60;96.90
69189;DHT22;56302;52.322;5.926;2022-10-16T03:53:28;11.60;97.00
69189;DHT22;56302;52.322;5.926;2022-10-16T03:55:53;11.60;97.10
69189;DHT22;56302;52.322;5.926;2022-10-16T03:58:19;11.60;97.10
69189;DHT22;56302;52.322;5.926;2022-10-16T04:00:46;11.60;97.00
69189;DHT22;56302;52.322;5.926;2022-10-16T04:03:13;11.60;97.10
69189;DHT22;56302;52.322;5.926;2022-10-16T04:05:38;11.60;97.20
69189;DHT22;56302;52.322;5.926;2022-10-16T04:08:04;11.60;97.20
69189;DHT22;56302;52.322;5.926;2022-10-16T04:10:30;11.60;97.30
69189;DHT22;56302;52.322;5.926;2022-10-16T04:12:55;11.50;97.30
69189;DHT22;56302;52.322;5.926;2022-10-16T04:15:24;11.50;97.40
69189;DHT22;56302;52.322;5.926;2022-10-16T04:17:50;11.50;97.40
69189;DHT22;56302;52.322;5.926;2022-10-16T04:20:16;11.60;97.40
69189;DHT22;56302;52.322;5.926;2022-10-16T04:22:42;11.50;97.20
69189;DHT22;56302;52.322;5.926;2022-10-16T04:25:08;11.50;97.20
69189;DHT22;56302;52.322;5.926;2022-10-16T04:27:33;11.50;97.20
69189;DHT22;56302;52.322;5.926;2022-10-16T04:30:00;11.50;97.30
69189;DHT22;56302;52.322;5.926;2022-10-16T04:32:26;11.50;97.30
69189;DHT22;56302;52.322;5.926;2022-10-16T04:34:52;11.40;97.30
69189;DHT22;56302;52.322;5.926;2022-10-16T04:37:18;11.40;97.60
69189;DHT22;56302;52.322;5.926;2022-10-16T04:39:44;11.40;97.60
69189;DHT22;56302;52.322;5.926;2022-10-16T04:42:11;11.40;97.80
69189;DHT22;56302;52.322;5.926;2022-10-16T04:44:37;11.40;97.80
69189;DHT22;56302;52.322;5.926;2022-10-16T04:47:02;11.40;97.70
69189;DHT22;56302;52.322;5.926;2022-10-16T04:49:28;11.30;97.60
69189;DHT22;56302;52.322;5.926;2022-10-16T04:51:54;11.30;97.80
69189;DHT22;56302;52.322;5.926;2022-10-16T04:54:19;11.30;97.80
69189;DHT22;56302;52.322;5.926;2022-10-16T04:56:45;11.30;97.80
69189;DHT22;56302;52.322;5.926;2022-10-16T04:59:16;11.30;98.00
69189;DHT22;56302;52.322;5.926;2022-10-16T05:01:42;11.40;97.80
69189;DHT22;56302;52.322;5.926;2022-10-16T05:04:07;11.40;97.80
69189;DHT22;56302;52.322;5.926;2022-10-16T05:06:33;11.40;97.80
69189;DHT22;56302;52.322;5.926;2022-10-16T05:08:59;11.40;97.70
69189;DHT22;56302;52.322;5.926;2022-10-16T05:11:24;11.40;97.70
69189;DHT22;56302;52.322;5.926;2022-10-16T05:13:50;11.40;97.70
69189;DHT22;56302;52.322;5.926;2022-10-16T05:16:15;11.40;97.60
69189;DHT22;56302;52.322;5.926;2022-10-16T05:18:41;11.40;97.60
69189;DHT22;56302;52.322;5.926;2022-10-16T05:21:06;11.40;97.50
69189;DHT22;56302;52.322;5.926;2022-10-16T05:23:32;11.40;97.70
69189;DHT22;56302;52.322;5.926;2022-10-16T05:25:58;11.40;97.70
69189;DHT22;56302;52.322;5.926;2022-10-16T05:28:26;11.40;97.60
69189;DHT22;56302;52.322;5.926;2022-10-16T05:30:52;11.40;97.70
69189;DHT22;56302;52.322;5.926;2022-10-16T05:33:23;11.40;97.70
69189;DHT22;56302;52.322;5.926;2022-10-16T05:35:49;11.50;97.70
69189;DHT22;56302;52.322;5.926;2022-10-16T05:38:16;11.40;97.70
69189;DHT22;56302;52.322;5.926;2022-10-16T05:40:42;11.40;97.60
69189;DHT22;56302;52.322;5.926;2022-10-16T05:43:07;11.40;97.60
69189;DHT22;56302;52.322;5.926;2022-10-16T05:45:33;11.30;97.80
69189;DHT22;56302;52.322;5.926;2022-10-16T05:47:59;11.40;97.80
69189;DHT22;56302;52.322;5.926;2022-10-16T05:50:25;11.40;97.90
69189;DHT22;56302;52.322;5.926;2022-10-16T05:52:50;11.40;97.90
69189;DHT22;56302;52.322;5.926;2022-10-16T05:55:16;11.50;97.90
69189;DHT22;56302;52.322;5.926;2022-10-16T05:57:41;11.40;97.80
69189;DHT22;56302;52.322;5.926;2022-10-16T06:00:07;11.40;97.80
69189;DHT22;56302;52.322;5.926;2022-10-16T06:02:33;11.40;97.80
69189;DHT22;56302;52.322;5.926;2022-10-16T06:04:59;11.40;97.70
69189;DHT22;56302;52.322;5.926;2022-10-16T06:07:24;11.40;97.70
69189;DHT22;56302;52.322;5.926;2022-10-16T06:09:51;11.40;97.70
69189;DHT22;56302;52.322;5.926;2022-10-16T06:12:16;11.40;97.70
69189;DHT22;56302;52.322;5.926;2022-10-16T06:14:42;11.40;97.80
69189;DHT22;56302;52.322;5.926;2022-10-16T06:17:08;11.30;97.80
69189;DHT22;56302;52.322;5.926;2022-10-16T06:19:33;11.40;97.90
69189;DHT22;56302;52.322;5.926;2022-10-16T06:21:59;11.40;98.00
69189;DHT22;56302;52.322;5.926;2022-10-16T06:24:25;11.40;98.00
69189;DHT22;56302;52.322;5.926;2022-10-16T06:26:51;11.50;98.00
69189;DHT22;56302;52.322;5.926;2022-10-16T06:29:16;11.50;98.10
69189;DHT22;56302;52.322;5.926;2022-10-16T06:31:42;11.50;98.10
69189;DHT22;56302;52.322;5.926;2022-10-16T06:34:09;11.50;97.90
69189;DHT22;56302;52.322;5.926;2022-10-16T06:36:37;11.60;97.90
69189;DHT22;56302;52.322;5.926;2022-10-16T06:39:03;11.60;97.90
69189;DHT22;56302;52.322;5.926;2022-10-16T06:41:29;11.60;97.90
69189;DHT22;56302;52.322;5.926;2022-10-16T06:43:54;11.70;97.80
69189;DHT22;56302;52.322;5.926;2022-10-16T06:46:22;11.70;97.80
69189;DHT22;56302;52.322;5.926;2022-10-16T06:48:49;11.80;97.70
69189;DHT22;56302;52.322;5.926;2022-10-16T06:51:17;11.80;97.60
69189;DHT22;56302;52.322;5.926;2022-10-16T06:53:48;11.80;97.50
69189;DHT22;56302;52.322;5.926;2022-10-16T06:56:19;11.80;97.40
69189;DHT22;56302;52.322;5.926;2022-10-16T06:58:46;11.80;97.30
69189;DHT22;56302;52.322;5.926;2022-10-16T07:01:12;11.80;97.40
69189;DHT22;56302;52.322;5.926;2022-10-16T07:03:40;11.80;97.40
69189;DHT22;56302;52.322;5.926;2022-10-16T07:06:07;11.80;97.40
69189;DHT22;56302;52.322;5.926;2022-10-16T07:08:38;11.90;97.50
69189;DHT22;56302;52.322;5.926;2022-10-16T07:11:06;11.90;97.60
69189;DHT22;56302;52.322;5.926;2022-10-16T07:13:36;11.90;97.60
69189;DHT22;56302;52.322;5.926;2022-10-16T07:18:38;11.90;97.70
69189;DHT22;56302;52.322;5.926;2022-10-16T07:21:06;11.90;97.90
69189;DHT22;56302;52.322;5.926;2022-10-16T07:23:32;11.90;97.90
69189;DHT22;56302;52.322;5.926;2022-10-16T07:25:58;12.00;98.00
69189;DHT22;56302;52.322;5.926;2022-10-16T07:28:23;12.00;98.00
69189;DHT22;56302;52.322;5.926;2022-10-16T07:30:49;12.10;97.90
69189;DHT22;56302;52.322;5.926;2022-10-16T07:33:14;12.10;97.90
69189;DHT22;56302;52.322;5.926;2022-10-16T07:35:51;12.10;98.00
69189;DHT22;56302;52.322;5.926;2022-10-16T07:38:17;12.10;98.00
69189;DHT22;56302;52.322;5.926;2022-10-16T07:40:43;12.20;98.00
69189;DHT22;56302;52.322;5.926;2022-10-16T07:43:09;12.20;97.90
69189;DHT22;56302;52.322;5.926;2022-10-16T07:45:34;12.20;97.70
69189;DHT22;56302;52.322;5.926;2022-10-16T07:48:00;12.20;97.50
69189;DHT22;56302;52.322;5.926;2022-10-16T07:50:25;12.20;97.40
69189;DHT22;56302;52.322;5.926;2022-10-16T07:52:51;12.30;97.20
69189;DHT22;56302;52.322;5.926;2022-10-16T07:55:17;12.40;97.00
69189;DHT22;56302;52.322;5.926;2022-10-16T07:57:42;12.40;96.70
69189;DHT22;56302;52.322;5.926;2022-10-16T08:00:08;12.50;96.40
69189;DHT22;56302;52.322;5.926;2022-10-16T08:02:41;12.50;96.10
69189;DHT22;56302;52.322;5.926;2022-10-16T08:05:07;12.50;95.70
69189;DHT22;56302;52.322;5.926;2022-10-16T08:07:33;12.60;95.60
69189;DHT22;56302;52.322;5.926;2022-10-16T08:09:59;12.60;95.50
69189;DHT22;56302;52.322;5.926;2022-10-16T08:12:25;12.70;95.30
69189;DHT22;56302;52.322;5.926;2022-10-16T08:14:51;12.70;95.00
69189;DHT22;56302;52.322;5.926;2022-10-16T08:17:16;12.70;94.80
69189;DHT22;56302;52.322;5.926;2022-10-16T08:19:48;12.70;94.30
69189;DHT22;56302;52.322;5.926;2022-10-16T08:22:14;12.80;94.10
69189;DHT22;56302;52.322;5.926;2022-10-16T08:24:40;12.90;94.00
69189;DHT22;56302;52.322;5.926;2022-10-16T08:27:09;13.00;93.30
69189;DHT22;56302;52.322;5.926;2022-10-16T08:29:35;13.00;93.20
69189;DHT22;56302;52.322;5.926;2022-10-16T08:32:00;13.00;93.00
69189;DHT22;56302;52.322;5.926;2022-10-16T08:34:26;13.10;92.80
69189;DHT22;56302;52.322;5.926;2022-10-16T08:36:53;13.20;92.20
69189;DHT22;56302;52.322;5.926;2022-10-16T08:39:19;13.30;91.10
69189;DHT22;56302;52.322;5.926;2022-10-16T08:42:11;13.50;90.60
69189;DHT22;56302;52.322;5.926;2022-10-16T08:50:20;13.90;88.80
69189;DHT22;56302;52.322;5.926;2022-10-16T08:52:47;13.80;89.00
69189;DHT22;56302;52.322;5.926;2022-10-16T08:55:43;13.90;88.80
69189;DHT22;56302;52.322;5.926;2022-10-16T08:58:15;14.00;88.90
69189;DHT22;56302;52.322;5.926;2022-10-16T09:00:42;13.90;89.00
69189;DHT22;56302;52.322;5.926;2022-10-16T09:03:37;13.90;89.10
69189;DHT22;56302;52.322;5.926;2022-10-16T09:08:52;14.00;89.50
69189;DHT22;56302;52.322;5.926;2022-10-16T09:16:33;14.10;89.30
69189;DHT22;56302;52.322;5.926;2022-10-16T09:19:24;14.20;89.00
69189;DHT22;56302;52.322;5.926;2022-10-16T09:21:53;14.30;88.60
69189;DHT22;56302;52.322;5.926;2022-10-16T09:24:21;14.40;88.50
69189;DHT22;56302;52.322;5.926;2022-10-16T09:26:47;14.40;88.50
69189;DHT22;56302;52.322;5.926;2022-10-16T09:29:14;14.40;87.70
69189;DHT22;56302;52.322;5.926;2022-10-16T09:31:40;14.50;87.40
69189;DHT22;56302;52.322;5.926;2022-10-16T09:34:14;14.60;87.20
69189;DHT22;56302;52.322;5.926;2022-10-16T09:36:45;14.60;86.80
69189;DHT22;56302;52.322;5.926;2022-10-16T09:39:11;14.60;86.10
69189;DHT22;56302;52.322;5.926;2022-10-16T09:41:41;14.70;86.30
69189;DHT22;56302;52.322;5.926;2022-10-16T09:44:29;14.80;86.50
69189;DHT22;56302;52.322;5.926;2022-10-16T09:47:15;14.80;86.40
69189;DHT22;56302;52.322;5.926;2022-10-16T09:50:00;14.90;83.50
69189;DHT22;56302;52.322;5.926;2022-10-16T09:52:28;14.90;84.80
69189;DHT22;56302;52.322;5.926;2022-10-16T09:55:17;14.90;85.00
69189;DHT22;56302;52.322;5.926;2022-10-16T09:57:53;15.10;85.60
69189;DHT22;56302;52.322;5.926;2022-10-16T10:00:20;15.10;84.80
69189;DHT22;56302;52.322;5.926;2022-10-16T10:02:46;15.20;84.30
69189;DHT22;56302;52.322;5.926;2022-10-16T10:05:22;15.30;83.20
69189;DHT22;56302;52.322;5.926;2022-10-16T10:07:56;15.40;83.30
69189;DHT22;56302;52.322;5.926;2022-10-16T10:10:27;15.40;82.80
69189;DHT22;56302;52.322;5.926;2022-10-16T10:12:54;15.50;81.60
69189;DHT22;56302;52.322;5.926;2022-10-16T10:15:20;15.60;82.20
69189;DHT22;56302;52.322;5.926;2022-10-16T10:17:54;15.60;81.60
69189;DHT22;56302;52.322;5.926;2022-10-16T10:20:24;15.60;82.30
69189;DHT22;56302;52.322;5.926;2022-10-16T10:22:51;15.60;79.90
69189;DHT22;56302;52.322;5.926;2022-10-16T10:25:31;15.50;78.70
69189;DHT22;56302;52.322;5.926;2022-10-16T10:30:56;15.50;79.90
69189;DHT22;56302;52.322;5.926;2022-10-16T10:39:43;15.60;76.20
69189;DHT22;56302;52.322;5.926;2022-10-16T10:50:24;15.50;76.00
69189;DHT22;56302;52.322;5.926;2022-10-16T10:55:40;15.40;77.20
69189;DHT22;56302;52.322;5.926;2022-10-16T11:01:26;16.00;76.10
69189;DHT22;56302;52.322;5.926;2022-10-16T11:06:48;15.80;74.60
69189;DHT22;56302;52.322;5.926;2022-10-16T11:09:19;15.60;75.90
69189;DHT22;56302;52.322;5.926;2022-10-16T11:15:15;15.60;78.30
69189;DHT22;56302;52.322;5.926;2022-10-16T11:17:46;15.90;77.30
69189;DHT22;56302;52.322;5.926;2022-10-16T11:20:23;15.90;74.60
69189;DHT22;56302;52.322;5.926;2022-10-16T11:23:06;15.70;74.90
69189;DHT22;56302;52.322;5.926;2022-10-16T11:25:33;15.80;75.90
69189;DHT22;56302;52.322;5.926;2022-10-16T11:28:23;15.90;75.90
69189;DHT22;56302;52.322;5.926;2022-10-16T11:30:54;16.20;75.90
69189;DHT22;56302;52.322;5.926;2022-10-16T11:33:39;16.20;74.60
69189;DHT22;56302;52.322;5.926;2022-10-16T11:38:43;16.00;73.60
69189;DHT22;56302;52.322;5.926;2022-10-16T11:44:38;15.70;74.20
69189;DHT22;56302;52.322;5.926;2022-10-16T11:46:41;15.60;75.80
69189;DHT22;56302;52.322;5.926;2022-10-16T11:49:15;15.70;77.00
69189;DHT22;56302;52.322;5.926;2022-10-16T11:56:59;16.30;75.60
69189;DHT22;56302;52.322;5.926;2022-10-16T11:59:51;16.50;73.40
69189;DHT22;56302;52.322;5.926;2022-10-16T12:07:40;16.70;70.00
69189;DHT22;56302;52.322;5.926;2022-10-16T12:10:18;16.70;72.10
69189;DHT22;56302;52.322;5.926;2022-10-16T12:12:44;16.60;70.90
69189;DHT22;56302;52.322;5.926;2022-10-16T12:15:32;16.60;71.50
69189;DHT22;56302;52.322;5.926;2022-10-16T12:17:58;16.70;73.40
69189;DHT22;56302;52.322;5.926;2022-10-16T12:20:36;16.60;71.00
69189;DHT22;56302;52.322;5.926;2022-10-16T12:23:05;16.70;71.60
69189;DHT22;56302;52.322;5.926;2022-10-16T12:25:36;16.70;71.40
69189;DHT22;56302;52.322;5.926;2022-10-16T12:28:29;16.80;70.00
69189;DHT22;56302;52.322;5.926;2022-10-16T12:31:06;16.90;70.40
69189;DHT22;56302;52.322;5.926;2022-10-16T12:33:35;16.80;67.40
69189;DHT22;56302;52.322;5.926;2022-10-16T12:36:12;16.80;66.00
69189;DHT22;56302;52.322;5.926;2022-10-16T12:38:47;16.70;69.20
69189;DHT22;56302;52.322;5.926;2022-10-16T12:43:52;16.70;66.70
69189;DHT22;56302;52.322;5.926;2022-10-16T12:46:21;16.60;68.50
69189;DHT22;56302;52.322;5.926;2022-10-16T12:48:46;16.40;68.40
69189;DHT22;56302;52.322;5.926;2022-10-16T12:56:40;16.00;70.80
69189;DHT22;56302;52.322;5.926;2022-10-16T13:08:18;16.00;72.60
69189;DHT22;56302;52.322;5.926;2022-10-16T13:16:23;16.00;71.10
69189;DHT22;56302;52.322;5.926;2022-10-16T13:22:24;16.10;69.30
69189;DHT22;56302;52.322;5.926;2022-10-16T13:27:10;16.20;67.60
69189;DHT22;56302;52.322;5.926;2022-10-16T13:29:38;16.20;68.30
69189;DHT22;56302;52.322;5.926;2022-10-16T13:32:09;16.20;67.90
69189;DHT22;56302;52.322;5.926;2022-10-16T13:34:45;16.30;67.90
69189;DHT22;56302;52.322;5.926;2022-10-16T13:37:21;16.20;69.40
69189;DHT22;56302;52.322;5.926;2022-10-16T13:39:48;16.20;71.00
69189;DHT22;56302;52.322;5.926;2022-10-16T13:42:24;16.20;69.50
69189;DHT22;56302;52.322;5.926;2022-10-16T13:44:52;16.30;70.60
69189;DHT22;56302;52.322;5.926;2022-10-16T13:47:19;16.40;71.40
69189;DHT22;56302;52.322;5.926;2022-10-16T13:49:46;16.30;71.20
69189;DHT22;56302;52.322;5.926;2022-10-16T13:52:17;16.40;70.30
69189;DHT22;56302;52.322;5.926;2022-10-16T13:54:43;16.40;69.40
69189;DHT22;56302;52.322;5.926;2022-10-16T13:57:13;16.30;68.70
69189;DHT22;56302;52.322;5.926;2022-10-16T13:59:39;16.40;68.90
69189;DHT22;56302;52.322;5.926;2022-10-16T14:02:20;16.50;68.80
69189;DHT22;56302;52.322;5.926;2022-10-16T14:04:47;16.50;70.90
69189;DHT22;56302;52.322;5.926;2022-10-16T14:07:17;16.40;68.60
69189;DHT22;56302;52.322;5.926;2022-10-16T14:09:49;16.40;67.00
69189;DHT22;56302;52.322;5.926;2022-10-16T14:12:15;16.40;67.00
69189;DHT22;56302;52.322;5.926;2022-10-16T14:14:46;16.40;64.70
69189;DHT22;56302;52.322;5.926;2022-10-16T14:17:22;16.30;65.80
69189;DHT22;56302;52.322;5.926;2022-10-16T14:19:49;16.30;66.20
69189;DHT22;56302;52.322;5.926;2022-10-16T14:24:54;16.30;66.40
69189;DHT22;56302;52.322;5.926;2022-10-16T14:30:18;16.30;67.70
69189;DHT22;56302;52.322;5.926;2022-10-16T14:33:01;16.40;66.90
69189;DHT22;56302;52.322;5.926;2022-10-16T14:35:33;16.40;68.30
69189;DHT22;56302;52.322;5.926;2022-10-16T14:38:01;16.40;70.10
69189;DHT22;56302;52.322;5.926;2022-10-16T14:40:33;16.40;69.90
69189;DHT22;56302;52.322;5.926;2022-10-16T14:43:00;16.40;70.20
69189;DHT22;56302;52.322;5.926;2022-10-16T14:45:29;16.40;71.30
69189;DHT22;56302;52.322;5.926;2022-10-16T14:48:00;16.30;72.40
69189;DHT22;56302;52.322;5.926;2022-10-16T14:50:27;16.20;74.20
69189;DHT22;56302;52.322;5.926;2022-10-16T14:52:52;16.20;73.40
69189;DHT22;56302;52.322;5.926;2022-10-16T14:55:19;16.20;75.20
69189;DHT22;56302;52.322;5.926;2022-10-16T14:57:45;16.10;75.40
69189;DHT22;56302;52.322;5.926;2022-10-16T15:00:22;16.10;73.90
69189;DHT22;56302;52.322;5.926;2022-10-16T15:02:50;16.10;74.70
69189;DHT22;56302;52.322;5.926;2022-10-16T15:05:21;16.00;75.20
69189;DHT22;56302;52.322;5.926;2022-10-16T15:07:48;16.00;75.10
69189;DHT22;56302;52.322;5.926;2022-10-16T15:10:15;16.00;76.00
69189;DHT22;56302;52.322;5.926;2022-10-16T15:12:42;15.90;76.90
69189;DHT22;56302;52.322;5.926;2022-10-16T15:15:33;15.90;76.40
69189;DHT22;56302;52.322;5.926;2022-10-16T15:18:00;15.90;76.40
69189;DHT22;56302;52.322;5.926;2022-10-16T15:20:29;15.80;77.40
69189;DHT22;56302;52.322;5.926;2022-10-16T15:22:56;15.80;78.20
69189;DHT22;56302;52.322;5.926;2022-10-16T15:28:08;15.70;78.40
69189;DHT22;56302;52.322;5.926;2022-10-16T15:30:34;15.70;79.80
69189;DHT22;56302;52.322;5.926;2022-10-16T15:33:00;15.60;78.80
69189;DHT22;56302;52.322;5.926;2022-10-16T15:35:26;15.60;80.30
69189;DHT22;56302;52.322;5.926;2022-10-16T15:37:52;15.60;79.30
69189;DHT22;56302;52.322;5.926;2022-10-16T15:40:19;15.50;80.90
69189;DHT22;56302;52.322;5.926;2022-10-16T15:42:45;15.50;80.80
69189;DHT22;56302;52.322;5.926;2022-10-16T15:45:12;15.50;80.70
69189;DHT22;56302;52.322;5.926;2022-10-16T15:47:38;15.40;81.10
69189;DHT22;56302;52.322;5.926;2022-10-16T15:50:04;15.40;81.20
69189;DHT22;56302;52.322;5.926;2022-10-16T15:52:30;15.30;81.50
69189;DHT22;56302;52.322;5.926;2022-10-16T15:54:57;15.20;81.60
69189;DHT22;56302;52.322;5.926;2022-10-16T15:57:23;15.20;81.80
69189;DHT22;56302;52.322;5.926;2022-10-16T15:59:49;15.10;81.70
69189;DHT22;56302;52.322;5.926;2022-10-16T16:02:15;15.00;81.90
69189;DHT22;56302;52.322;5.926;2022-10-16T16:04:41;15.00;82.10
69189;DHT22;56302;52.322;5.926;2022-10-16T16:07:06;14.90;82.30
69189;DHT22;56302;52.322;5.926;2022-10-16T16:09:35;14.90;82.40
69189;DHT22;56302;52.322;5.926;2022-10-16T16:12:00;14.80;82.60
69189;DHT22;56302;52.322;5.926;2022-10-16T16:14:26;14.70;82.50
69189;DHT22;56302;52.322;5.926;2022-10-16T16:16:55;14.70;82.70
69189;DHT22;56302;52.322;5.926;2022-10-16T16:19:21;14.60;83.20
69189;DHT22;56302;52.322;5.926;2022-10-16T16:21:48;14.60;83.20
69189;DHT22;56302;52.322;5.926;2022-10-16T16:24:13;14.60;83.20
69189;DHT22;56302;52.322;5.926;2022-10-16T16:26:39;14.50;83.20
69189;DHT22;56302;52.322;5.926;2022-10-16T16:29:11;14.50;83.20
69189;DHT22;56302;52.322;5.926;2022-10-16T16:31:37;14.50;83.50
69189;DHT22;56302;52.322;5.926;2022-10-16T16:34:03;14.40;83.50
69189;DHT22;56302;52.322;5.926;2022-10-16T16:36:29;14.40;83.50
69189;DHT22;56302;52.322;5.926;2022-10-16T16:38:54;14.30;83.70
69189;DHT22;56302;52.322;5.926;2022-10-16T16:41:22;14.20;84.20
69189;DHT22;56302;52.322;5.926;2022-10-16T16:43:48;14.10;84.60
69189;DHT22;56302;52.322;5.926;2022-10-16T16:46:15;14.10;84.30
69189;DHT22;56302;52.322;5.926;2022-10-16T16:48:41;14.10;84.50
69189;DHT22;56302;52.322;5.926;2022-10-16T16:51:09;14.00;84.40
69189;DHT22;56302;52.322;5.926;2022-10-16T16:53:37;14.00;84.40
69189;DHT22;56302;52.322;5.926;2022-10-16T16:56:03;13.90;84.70
69189;DHT22;56302;52.322;5.926;2022-10-16T16:58:29;13.90;84.70
69189;DHT22;56302;52.322;5.926;2022-10-16T17:00:55;13.90;84.60
69189;DHT22;56302;52.322;5.926;2022-10-16T17:03:20;13.80;84.70
69189;DHT22;56302;52.322;5.926;2022-10-16T17:06:00;13.80;84.80
69189;DHT22;56302;52.322;5.926;2022-10-16T17:08:26;13.70;84.90
69189;DHT22;56302;52.322;5.926;2022-10-16T17:10:51;13.70;84.80
69189;DHT22;56302;52.322;5.926;2022-10-16T17:13:21;13.60;84.80
69189;DHT22;56302;52.322;5.926;2022-10-16T17:15:48;13.60;85.10
69189;DHT22;56302;52.322;5.926;2022-10-16T17:18:13;13.50;84.90
69189;DHT22;56302;52.322;5.926;2022-10-16T17:20:39;13.40;84.90
69189;DHT22;56302;52.322;5.926;2022-10-16T17:23:05;13.40;85.10
69189;DHT22;56302;52.322;5.926;2022-10-16T17:25:31;13.30;85.10
69189;DHT22;56302;52.322;5.926;2022-10-16T17:27:57;13.30;85.30